sensor_id;sensor_type;location;lat;lon;timestamp;pressure;altitude;pressure_sealevel;temperature
37452;BMP280;23314;51.114;6.900;2023-06-22T04:02:32;101355.56;;;22.25
37452;BMP280;23314;51.114;6.900;2023-06-22T04:04:58;101364.47;;;22.46
37452;BMP280;23314;51.114;6.900;2023-06-22T04:07:23;101370.47;;;22.70
37452;BMP280;23314;51.114;6.900;2023-06-22T04:09:48;101366.50;;;22.92
37452;BMP280;23314;51.114;6.900;2023-06-22T04:12:14;101365.94;;;23.08
37452;BMP280;23314;51.114;6.900;2023-06-22T04:14:39;101365.13;;;23.29
37452;BMP280;23314;51.114;6.900;2023-06-22T04:17:04;101353.38;;;23.43
37452;BMP280;23314;51.114;6.900;2023-06-22T04:19:30;101361.38;;;23.52
37452;BMP280;23314;51.114;6.900;2023-06-22T04:21:55;101360.19;;;23.59
37452;BMP280;23314;51.114;6.900;2023-06-22T04:24:21;101362.91;;;23.65
37452;BMP280;23314;51.114;6.900;2023-06-22T04:26:46;101363.72;;;23.71
37452;BMP280;23314;51.114;6.900;2023-06-22T04:29:12;101357.31;;;23.74
37452;BMP280;23314;51.114;6.900;2023-06-22T04:31:37;101361.31;;;23.78
37452;BMP280;23314;51.114;6.900;2023-06-22T04:34:04;101357.09;;;23.83
37452;BMP280;23314;51.114;6.900;2023-06-22T04:36:40;101359.13;;;23.88
37452;BMP280;23314;51.114;6.900;2023-06-22T04:39:10;101363.34;;;23.95
37452;BMP280;23314;51.114;6.900;2023-06-22T09:24:15;101212.69;;;28.24
37452;BMP280;23314;51.114;6.900;2023-06-22T09:26:40;101211.38;;;28.71
37452;BMP280;23314;51.114;6.900;2023-06-22T09:29:05;101193.72;;;29.06
37452;BMP280;23314;51.114;6.900;2023-06-22T09:31:31;101187.03;;;29.29
37452;BMP280;23314;51.114;6.900;2023-06-22T09:33:57;101175.88;;;29.48
37452;BMP280;23314;51.114;6.900;2023-06-22T09:36:22;101169.09;;;29.70
37452;BMP280;23314;51.114;6.900;2023-06-22T09:38:48;101166.78;;;29.95
37452;BMP280;23314;51.114;6.900;2023-06-22T09:41:20;101149.44;;;30.08
37452;BMP280;23314;51.114;6.900;2023-06-22T09:43:45;101160.06;;;30.32
37452;BMP280;23314;51.114;6.900;2023-06-22T09:46:11;101159.72;;;30.44
37452;BMP280;23314;51.114;6.900;2023-06-22T09:48:36;101151.47;;;30.44
37452;BMP280;23314;51.114;6.900;2023-06-22T09:51:01;101148.56;;;30.49
37452;BMP280;23314;51.114;6.900;2023-06-22T09:53:27;101153.56;;;30.59
37452;BMP280;23314;51.114;6.900;2023-06-22T09:55:52;101146.63;;;30.65
37452;BMP280;23314;51.114;6.900;2023-06-22T09:58:18;101146.66;;;30.73
37452;BMP280;23314;51.114;6.900;2023-06-22T10:00:43;101146.75;;;31.04
37452;BMP280;23314;51.114;6.900;2023-06-22T10:03:08;101149.53;;;31.19
37452;BMP280;23314;51.114;6.900;2023-06-22T10:05:34;101153.03;;;31.27
37452;BMP280;23314;51.114;6.900;2023-06-22T10:07:59;101145.34;;;31.49
37452;BMP280;23314;51.114;6.900;2023-06-22T10:10:24;101149.75;;;31.60
37452;BMP280;23314;51.114;6.900;2023-06-22T10:12:57;101160.44;;;31.63
37452;BMP280;23314;51.114;6.900;2023-06-22T10:15:23;101148.25;;;31.51
37452;BMP280;23314;51.114;6.900;2023-06-22T10:17:49;101150.28;;;31.27
37452;BMP280;23314;51.114;6.900;2023-06-22T10:20:14;101158.13;;;31.00
37452;BMP280;23314;51.114;6.900;2023-06-22T10:22:41;101164.09;;;30.68
37452;BMP280;23314;51.114;6.900;2023-06-22T10:25:07;101178.09;;;30.41
37452;BMP280;23314;51.114;6.900;2023-06-22T10:27:33;101175.19;;;30.18
37452;BMP280;23314;51.114;6.900;2023-06-22T10:29:58;101190.25;;;29.96
37452;BMP280;23314;51.114;6.900;2023-06-22T10:32:23;101196.66;;;29.77
37452;BMP280;23314;51.114;6.900;2023-06-22T10:34:48;101206.06;;;29.61
37452;BMP280;23314;51.114;6.900;2023-06-22T10:37:14;101223.47;;;29.42
37452;BMP280;23314;51.114;6.900;2023-06-22T10:39:39;101215.78;;;29.28
37452;BMP280;23314;51.114;6.900;2023-06-22T10:42:05;101233.16;;;29.09
37452;BMP280;23314;51.114;6.900;2023-06-22T10:44:30;101242.34;;;28.85
37452;BMP280;23314;51.114;6.900;2023-06-22T10:46:55;101252.66;;;28.65
37452;BMP280;23314;51.114;6.900;2023-06-22T10:49:21;101255.72;;;28.48
37452;BMP280;23314;51.114;6.900;2023-06-22T10:51:46;101263.72;;;28.33
37452;BMP280;23314;51.114;6.900;2023-06-22T10:54:11;101263.22;;;28.16
37452;BMP280;23314;51.114;6.900;2023-06-22T10:56:40;101263.91;;;28.03
37452;BMP280;23314;51.114;6.900;2023-06-22T10:59:05;101259.38;;;27.86
37452;BMP280;23314;51.114;6.900;2023-06-22T11:01:30;101260.91;;;27.68
37452;BMP280;23314;51.114;6.900;2023-06-22T11:03:58;101257.69;;;27.45
37452;BMP280;23314;51.114;6.900;2023-06-22T11:06:23;101256.91;;;27.26
37452;BMP280;23314;51.114;6.900;2023-06-22T11:08:49;101260.59;;;27.09
37452;BMP280;23314;51.114;6.900;2023-06-22T11:11:15;101263.94;;;26.96
37452;BMP280;23314;51.114;6.900;2023-06-22T11:13:40;101262.06;;;26.85
37452;BMP280;23314;51.114;6.900;2023-06-22T11:16:06;101264.16;;;26.74
37452;BMP280;23314;51.114;6.900;2023-06-22T11:18:32;101277.84;;;26.74
37452;BMP280;23314;51.114;6.900;2023-06-22T11:20:59;101266.94;;;26.68
37452;BMP280;23314;51.114;6.900;2023-06-22T11:23:24;101254.13;;;26.52
37452;BMP280;23314;51.114;6.900;2023-06-22T11:25:51;101239.31;;;26.36
37452;BMP280;23314;51.114;6.900;2023-06-22T11:28:16;101235.94;;;26.24
37452;BMP280;23314;51.114;6.900;2023-06-22T11:30:42;101207.66;;;26.10
37452;BMP280;23314;51.114;6.900;2023-06-22T11:33:08;101200.88;;;25.81
37452;BMP280;23314;51.114;6.900;2023-06-22T11:35:33;101191.59;;;25.53
37452;BMP280;23314;51.114;6.900;2023-06-22T11:38:02;101201.81;;;25.36
37452;BMP280;23314;51.114;6.900;2023-06-22T11:40:29;101188.94;;;25.25
37452;BMP280;23314;51.114;6.900;2023-06-22T11:42:55;101173.09;;;25.23
37452;BMP280;23314;51.114;6.900;2023-06-22T11:45:21;101146.75;;;25.26
37452;BMP280;23314;51.114;6.900;2023-06-22T11:47:47;101125.44;;;25.19
37452;BMP280;23314;51.114;6.900;2023-06-22T11:50:13;101135.59;;;25.18
37452;BMP280;23314;51.114;6.900;2023-06-22T11:52:38;101121.94;;;25.24
37452;BMP280;23314;51.114;6.900;2023-06-22T11:55:04;101100.31;;;25.32
37452;BMP280;23314;51.114;6.900;2023-06-22T11:57:39;101100.25;;;25.43
37452;BMP280;23314;51.114;6.900;2023-06-22T12:00:17;101084.53;;;25.55
37452;BMP280;23314;51.114;6.900;2023-06-22T12:02:44;101079.50;;;25.65
37452;BMP280;23314;51.114;6.900;2023-06-22T12:05:10;101079.97;;;25.69
37452;BMP280;23314;51.114;6.900;2023-06-22T12:07:36;101079.50;;;25.65
37452;BMP280;23314;51.114;6.900;2023-06-22T12:10:03;101070.34;;;25.62
37452;BMP280;23314;51.114;6.900;2023-06-22T12:12:31;101060.47;;;25.53
37452;BMP280;23314;51.114;6.900;2023-06-22T12:14:56;101050.88;;;25.35
37452;BMP280;23314;51.114;6.900;2023-06-22T12:17:22;101069.84;;;25.16
37452;BMP280;23314;51.114;6.900;2023-06-22T12:19:47;101078.78;;;25.17
37452;BMP280;23314;51.114;6.900;2023-06-22T12:22:13;101091.66;;;25.28
37452;BMP280;23314;51.114;6.900;2023-06-22T12:24:38;101074.25;;;25.67
37452;BMP280;23314;51.114;6.900;2023-06-22T12:27:04;101065.38;;;25.97
37452;BMP280;23314;51.114;6.900;2023-06-22T12:29:29;101071.09;;;26.23
37452;BMP280;23314;51.114;6.900;2023-06-22T12:31:55;101077.84;;;26.47
37452;BMP280;23314;51.114;6.900;2023-06-22T12:34:20;101072.78;;;26.76
37452;BMP280;23314;51.114;6.900;2023-06-22T12:36:46;101072.19;;;27.02
37452;BMP280;23314;51.114;6.900;2023-06-22T12:39:13;101063.63;;;27.30
37452;BMP280;23314;51.114;6.900;2023-06-22T12:41:39;101063.03;;;27.51
37452;BMP280;23314;51.114;6.900;2023-06-22T12:44:05;101063.63;;;27.63
37452;BMP280;23314;51.114;6.900;2023-06-22T12:46:31;101057.69;;;27.91
37452;BMP280;23314;51.114;6.900;2023-06-22T12:49:02;101045.75;;;28.15
37452;BMP280;23314;51.114;6.900;2023-06-22T12:51:29;101039.66;;;28.22
37452;BMP280;23314;51.114;6.900;2023-06-22T12:53:55;101030.50;;;28.20
37452;BMP280;23314;51.114;6.900;2023-06-22T12:56:21;101026.47;;;28.21
37452;BMP280;23314;51.114;6.900;2023-06-22T12:58:46;101028.88;;;28.24
37452;BMP280;23314;51.114;6.900;2023-06-22T13:01:12;101034.16;;;28.22
37452;BMP280;23314;51.114;6.900;2023-06-22T13:03:37;101028.81;;;28.17
37452;BMP280;23314;51.114;6.900;2023-06-22T13:06:02;101026.69;;;28.23
37452;BMP280;23314;51.114;6.900;2023-06-22T13:08:29;101016.03;;;28.19
37452;BMP280;23314;51.114;6.900;2023-06-22T13:10:54;101014.53;;;28.18
37452;BMP280;23314;51.114;6.900;2023-06-22T13:13:23;101011.97;;;28.33
37452;BMP280;23314;51.114;6.900;2023-06-22T13:15:50;100999.53;;;28.46
37452;BMP280;23314;51.114;6.900;2023-06-22T13:18:15;100997.69;;;28.62
37452;BMP280;23314;51.114;6.900;2023-06-22T13:20:41;101002.66;;;28.77
37452;BMP280;23314;51.114;6.900;2023-06-22T13:23:06;100997.28;;;28.92
37452;BMP280;23314;51.114;6.900;2023-06-22T13:25:32;100984.19;;;28.98
37452;BMP280;23314;51.114;6.900;2023-06-22T13:27:57;100984.03;;;29.25
37452;BMP280;23314;51.114;6.900;2023-06-22T13:30:23;100986.84;;;29.33
37452;BMP280;23314;51.114;6.900;2023-06-22T13:32:48;100983.69;;;29.29
37452;BMP280;23314;51.114;6.900;2023-06-22T13:35:14;100973.06;;;29.25
37452;BMP280;23314;51.114;6.900;2023-06-22T13:37:39;100957.91;;;29.11
37452;BMP280;23314;51.114;6.900;2023-06-22T13:40:06;100955.66;;;29.01
37452;BMP280;23314;51.114;6.900;2023-06-22T13:42:32;100944.09;;;29.03
37452;BMP280;23314;51.114;6.900;2023-06-22T13:44:58;100941.81;;;28.94
37452;BMP280;23314;51.114;6.900;2023-06-22T13:47:23;100938.78;;;28.84
37452;BMP280;23314;51.114;6.900;2023-06-22T13:49:49;100939.28;;;28.75
37452;BMP280;23314;51.114;6.900;2023-06-22T13:52:14;100929.66;;;28.68
37452;BMP280;23314;51.114;6.900;2023-06-22T13:54:40;100917.16;;;28.59
37452;BMP280;23314;51.114;6.900;2023-06-22T13:57:05;100920.59;;;28.73
37452;BMP280;23314;51.114;6.900;2023-06-22T13:59:31;100924.69;;;29.01
37452;BMP280;23314;51.114;6.900;2023-06-22T14:01:56;100915.84;;;29.23
37452;BMP280;23314;51.114;6.900;2023-06-22T14:04:25;100899.69;;;29.41
37452;BMP280;23314;51.114;6.900;2023-06-22T14:06:50;100880.38;;;29.62
37452;BMP280;23314;51.114;6.900;2023-06-22T14:09:16;100875.06;;;29.64
37452;BMP280;23314;51.114;6.900;2023-06-22T14:11:41;100864.97;;;29.59
37452;BMP280;23314;51.114;6.900;2023-06-22T14:14:07;100860.56;;;29.56
37452;BMP280;23314;51.114;6.900;2023-06-22T14:16:32;100857.03;;;29.48
37452;BMP280;23314;51.114;6.900;2023-06-22T14:18:58;100859.88;;;29.34
37452;BMP280;23314;51.114;6.900;2023-06-22T14:21:23;100866.66;;;29.04
37452;BMP280;23314;51.114;6.900;2023-06-22T14:23:48;100859.28;;;28.71
37452;BMP280;23314;51.114;6.900;2023-06-22T14:26:15;100845.13;;;28.45
37452;BMP280;23314;51.114;6.900;2023-06-22T14:28:46;100844.31;;;28.37
37452;BMP280;23314;51.114;6.900;2023-06-22T14:31:17;100846.06;;;28.48
37452;BMP280;23314;51.114;6.900;2023-06-22T14:33:47;100837.78;;;28.61
37452;BMP280;23314;51.114;6.900;2023-06-22T14:36:13;100826.31;;;28.71
37452;BMP280;23314;51.114;6.900;2023-06-22T14:38:39;100814.91;;;28.87
37452;BMP280;23314;51.114;6.900;2023-06-22T14:41:04;100798.88;;;28.99
37452;BMP280;23314;51.114;6.900;2023-06-22T14:43:30;100806.22;;;29.04
37452;BMP280;23314;51.114;6.900;2023-06-22T14:45:55;100811.19;;;29.06
37452;BMP280;23314;51.114;6.900;2023-06-22T14:48:21;100804.22;;;29.05
37452;BMP280;23314;51.114;6.900;2023-06-22T14:50:46;100804.50;;;28.94
37452;BMP280;23314;51.114;6.900;2023-06-22T14:53:12;100786.16;;;28.60
37452;BMP280;23314;51.114;6.900;2023-06-22T14:55:37;100781.94;;;28.38
37452;BMP280;23314;51.114;6.900;2023-06-22T14:58:09;100769.00;;;28.25
37452;BMP280;23314;51.114;6.900;2023-06-22T15:00:35;100760.72;;;28.17
37452;BMP280;23314;51.114;6.900;2023-06-22T15:03:00;100744.19;;;28.09
37452;BMP280;23314;51.114;6.900;2023-06-22T15:05:26;100751.22;;;28.18
37452;BMP280;23314;51.114;6.900;2023-06-22T15:07:51;100735.59;;;28.26
37452;BMP280;23314;51.114;6.900;2023-06-22T15:10:16;100729.28;;;28.39
37452;BMP280;23314;51.114;6.900;2023-06-22T15:12:42;100735.91;;;28.44
37452;BMP280;23314;51.114;6.900;2023-06-22T15:15:07;100747.53;;;28.37
37452;BMP280;23314;51.114;6.900;2023-06-22T15:17:33;100734.84;;;28.26
37452;BMP280;23314;51.114;6.900;2023-06-22T15:19:59;100748.28;;;28.16
37452;BMP280;23314;51.114;6.900;2023-06-22T15:22:24;100724.19;;;28.01
37452;BMP280;23314;51.114;6.900;2023-06-22T15:24:50;100706.13;;;27.85
37452;BMP280;23314;51.114;6.900;2023-06-22T15:27:18;100707.44;;;27.70
37452;BMP280;23314;51.114;6.900;2023-06-22T15:29:43;100735.41;;;27.55
37452;BMP280;23314;51.114;6.900;2023-06-22T15:32:09;100773.34;;;27.38
37452;BMP280;23314;51.114;6.900;2023-06-22T15:34:34;100778.09;;;27.11
37452;BMP280;23314;51.114;6.900;2023-06-22T15:36:59;100759.94;;;26.81
37452;BMP280;23314;51.114;6.900;2023-06-22T15:39:25;100741.91;;;26.26
37452;BMP280;23314;51.114;6.900;2023-06-22T15:41:52;100762.88;;;25.61
37452;BMP280;23314;51.114;6.900;2023-06-22T15:44:20;100739.03;;;25.12
37452;BMP280;23314;51.114;6.900;2023-06-22T15:46:45;100717.38;;;24.65
37452;BMP280;23314;51.114;6.900;2023-06-22T15:49:10;100703.22;;;24.36
37452;BMP280;23314;51.114;6.900;2023-06-22T15:51:36;100706.31;;;24.15
37452;BMP280;23314;51.114;6.900;2023-06-22T15:54:01;100696.75;;;23.92
37452;BMP280;23314;51.114;6.900;2023-06-22T15:56:26;100708.72;;;23.77
37452;BMP280;23314;51.114;6.900;2023-06-22T15:58:52;100700.59;;;23.66
37452;BMP280;23314;51.114;6.900;2023-06-22T16:01:17;100709.53;;;23.55
37452;BMP280;23314;51.114;6.900;2023-06-22T16:03:43;100710.81;;;23.49
37452;BMP280;23314;51.114;6.900;2023-06-22T16:06:08;100721.19;;;23.44
37452;BMP280;23314;51.114;6.900;2023-06-22T16:08:33;100718.47;;;23.39
37452;BMP280;23314;51.114;6.900;2023-06-22T16:10:59;100694.97;;;23.36
37452;BMP280;23314;51.114;6.900;2023-06-22T16:13:25;100675.69;;;23.34
37452;BMP280;23314;51.114;6.900;2023-06-22T16:15:50;100685.09;;;23.33
37452;BMP280;23314;51.114;6.900;2023-06-22T16:18:15;100666.03;;;23.33
37452;BMP280;23314;51.114;6.900;2023-06-22T16:20:41;100643.25;;;23.36
37452;BMP280;23314;51.114;6.900;2023-06-22T16:23:07;100631.91;;;23.37
37452;BMP280;23314;51.114;6.900;2023-06-22T16:25:32;100618.28;;;23.37
37452;BMP280;23314;51.114;6.900;2023-06-22T16:27:58;100631.44;;;23.27
37452;BMP280;23314;51.114;6.900;2023-06-22T16:30:23;100627.00;;;23.07
37452;BMP280;23314;51.114;6.900;2023-06-22T16:32:52;100635.47;;;22.87
37452;BMP280;23314;51.114;6.900;2023-06-22T16:35:22;100629.78;;;22.73
37452;BMP280;23314;51.114;6.900;2023-06-22T16:37:47;100604.56;;;22.62
37452;BMP280;23314;51.114;6.900;2023-06-22T16:40:13;100613.47;;;22.51
37452;BMP280;23314;51.114;6.900;2023-06-22T16:42:38;100586.81;;;22.44
37452;BMP280;23314;51.114;6.900;2023-06-22T16:45:04;100595.19;;;22.34
37452;BMP280;23314;51.114;6.900;2023-06-22T16:47:29;100608.75;;;22.29
37452;BMP280;23314;51.114;6.900;2023-06-22T16:49:55;100626.53;;;22.24
37452;BMP280;23314;51.114;6.900;2023-06-22T16:52:20;100623.34;;;22.20
37452;BMP280;23314;51.114;6.900;2023-06-22T16:54:46;100625.78;;;22.18
37452;BMP280;23314;51.114;6.900;2023-06-22T16:57:14;100616.41;;;22.19
37452;BMP280;23314;51.114;6.900;2023-06-22T16:59:40;100601.09;;;22.21
37452;BMP280;23314;51.114;6.900;2023-06-22T17:02:10;100598.63;;;22.24
37452;BMP280;23314;51.114;6.900;2023-06-22T17:04:36;100590.22;;;22.27
37452;BMP280;23314;51.114;6.900;2023-06-22T17:07:10;100596.41;;;22.28
37452;BMP280;23314;51.114;6.900;2023-06-22T17:09:37;100588.50;;;22.24
37452;BMP280;23314;51.114;6.900;2023-06-22T17:12:05;100582.81;;;22.22
37452;BMP280;23314;51.114;6.900;2023-06-22T17:14:31;100578.84;;;22.23
37452;BMP280;23314;51.114;6.900;2023-06-22T17:16:57;100572.69;;;22.28
37452;BMP280;23314;51.114;6.900;2023-06-22T17:19:23;100571.97;;;22.28
37452;BMP280;23314;51.114;6.900;2023-06-22T17:21:48;100571.72;;;22.31
37452;BMP280;23314;51.114;6.900;2023-06-22T17:24:18;100585.81;;;22.35
37452;BMP280;23314;51.114;6.900;2023-06-22T17:26:53;100579.13;;;22.42
37452;BMP280;23314;51.114;6.900;2023-06-22T17:29:19;100583.81;;;22.42
37452;BMP280;23314;51.114;6.900;2023-06-22T17:31:44;100575.44;;;22.39
37452;BMP280;23314;51.114;6.900;2023-06-22T17:34:13;100571.69;;;22.37
37452;BMP280;23314;51.114;6.900;2023-06-22T17:36:44;100576.41;;;22.36
37452;BMP280;23314;51.114;6.900;2023-06-22T17:39:14;100559.59;;;22.38
37452;BMP280;23314;51.114;6.900;2023-06-22T17:41:39;100559.59;;;22.38
37452;BMP280;23314;51.114;6.900;2023-06-22T17:44:06;100547.72;;;22.41
37452;BMP280;23314;51.114;6.900;2023-06-22T17:46:36;100545.78;;;22.42
37452;BMP280;23314;51.114;6.900;2023-06-22T17:49:06;100541.56;;;22.46
37452;BMP280;23314;51.114;6.900;2023-06-22T17:51:32;100551.44;;;22.49
37452;BMP280;23314;51.114;6.900;2023-06-22T17:53:57;100556.63;;;22.53
37452;BMP280;23314;51.114;6.900;2023-06-22T17:56:24;100561.59;;;22.60
37452;BMP280;23314;51.114;6.900;2023-06-22T17:58:53;100562.78;;;22.65
37452;BMP280;23314;51.114;6.900;2023-06-22T18:01:46;100561.81;;;22.68
37452;BMP280;23314;51.114;6.900;2023-06-22T18:04:13;100558.84;;;22.71
37452;BMP280;23314;51.114;6.900;2023-06-22T18:06:46;100565.00;;;22.78
37452;BMP280;23314;51.114;6.900;2023-06-22T18:09:14;100570.19;;;22.87
37452;BMP280;23314;51.114;6.900;2023-06-22T18:11:47;100577.31;;;22.96
37452;BMP280;23314;51.114;6.900;2023-06-22T18:14:14;100578.81;;;22.97
37452;BMP280;23314;51.114;6.900;2023-06-22T18:16:41;100570.91;;;22.99
37452;BMP280;23314;51.114;6.900;2023-06-22T18:19:09;100561.00;;;23.01
37452;BMP280;23314;51.114;6.900;2023-06-22T18:21:36;100566.91;;;23.05
37452;BMP280;23314;51.114;6.900;2023-06-22T18:24:01;100563.47;;;23.11
37452;BMP280;23314;51.114;6.900;2023-06-22T18:26:27;100559.47;;;23.17
37452;BMP280;23314;51.114;6.900;2023-06-22T18:28:54;100562.41;;;23.25
37452;BMP280;23314;51.114;6.900;2023-06-22T18:31:20;100563.38;;;23.27
37452;BMP280;23314;51.114;6.900;2023-06-22T18:33:48;100553.22;;;23.28
37452;BMP280;23314;51.114;6.900;2023-06-22T18:36:14;100557.94;;;23.27
37452;BMP280;23314;51.114;6.900;2023-06-22T18:38:42;100558.47;;;23.20
37452;BMP280;23314;51.114;6.900;2023-06-22T18:41:23;100554.75;;;23.18
37452;BMP280;23314;51.114;6.900;2023-06-22T18:43:51;100546.13;;;23.08
37452;BMP280;23314;51.114;6.900;2023-06-22T18:46:36;100558.78;;;22.88
37452;BMP280;23314;51.114;6.900;2023-06-22T18:49:09;100571.69;;;22.71
37452;BMP280;23314;51.114;6.900;2023-06-22T18:54:19;100578.38;;;22.53
37452;BMP280;23314;51.114;6.900;2023-06-22T18:56:55;100588.03;;;22.48
37452;BMP280;23314;51.114;6.900;2023-06-22T19:13:29;100672.84;;;21.00
37452;BMP280;23314;51.114;6.900;2023-06-22T19:16:05;100676.88;;;20.84
37452;BMP280;23314;51.114;6.900;2023-06-22T19:21:07;100670.03;;;20.62
37452;BMP280;23314;51.114;6.900;2023-06-22T19:23:34;100692.59;;;20.54
37452;BMP280;23314;51.114;6.900;2023-06-22T19:26:17;100684.91;;;20.46
37452;BMP280;23314;51.114;6.900;2023-06-22T19:28:48;100697.66;;;20.40
37452;BMP280;23314;51.114;6.900;2023-06-22T19:31:14;100697.84;;;20.37
37452;BMP280;23314;51.114;6.900;2023-06-22T19:33:39;100716.25;;;20.33
37452;BMP280;23314;51.114;6.900;2023-06-22T19:36:06;100730.03;;;20.29
37452;BMP280;23314;51.114;6.900;2023-06-22T19:38:31;100717.38;;;20.20
